Time;durP1;ratioP1;P1;durP2;ratioP2;P2;SDS_P1;SDS_P2;PMS_P1;PMS_P2;Temp;Humidity;BMP_temperature;BMP_pressure;BME280_temperature;BME280_humidity;BME280_pressure;Samples;Min_cycle;Max_cycle;Signal;HPM_P1;HPM_P2
2022/02/27 00:00:58;;;;;;;;;;;;;;;20.98;42.18;103176.31;5034174;28;4525;-62
2022/02/27 00:03:25;;;;;;;;;;;;;;;20.97;42.03;103181.31;5039743;28;4143;-63
2022/02/27 00:05:51;;;;;;;;;;;;;;;20.97;42.09;103174.78;5032235;28;4199;-62
2022/02/27 00:08:18;;;;;;;;;;;;;;;20.96;42.17;103171.16;5033729;28;5191;-62
2022/02/27 00:10:44;;;;;;;;;;;;;;;20.96;42.18;103173.25;5032364;28;5337;-63
2022/02/27 00:13:10;;;;;;;;;;;;;;;20.95;42.08;103181.16;5033350;28;4224;-62
2022/02/27 00:15:37;;;;;;;;;;;;;;;20.96;42.11;103179.00;5036868;28;5242;-62
2022/02/27 00:18:03;;;;;;;;;;;;;;;20.96;42.01;103179.00;5034007;28;4185;-63
2022/02/27 00:20:29;;;;;;;;;;;;;;;20.93;42.15;103178.84;5031093;28;5394;-63
2022/02/27 00:22:56;;;;;;;;;;;;;;;20.96;41.89;103190.53;5031109;28;4948;-63
2022/02/27 00:25:22;;;;;;;;;;;;;;;20.92;42.02;103180.22;5033522;28;4347;-63
2022/02/27 00:27:48;;;;;;;;;;;;;;;20.95;42.07;103186.16;5031831;28;4164;-62
2022/02/27 00:30:15;;;;;;;;;;;;;;;20.97;42.05;103192.06;5033778;28;4229;-62
2022/02/27 00:32:41;;;;;;;;;;;;;;;20.96;41.96;103179.00;5030233;28;4145;-63
2022/02/27 00:35:08;;;;;;;;;;;;;;;20.95;42.05;103172.50;5031160;28;4269;-62
2022/02/27 00:37:34;;;;;;;;;;;;;;;20.95;42.14;103171.75;5049672;28;4264;-62
2022/02/27 00:40:01;;;;;;;;;;;;;;;20.96;41.89;103170.38;5040236;28;5387;-62
2022/02/27 00:42:28;;;;;;;;;;;;;;;20.95;41.95;103171.75;5038817;28;5212;-63
2022/02/27 00:44:54;;;;;;;;;;;;;;;20.95;42.01;103177.50;5055829;28;5308;-62
2022/02/27 00:47:20;;;;;;;;;;;;;;;20.92;42.07;103174.47;5030959;28;4157;-62
2022/02/27 00:49:47;;;;;;;;;;;;;;;20.93;41.93;103178.84;5043579;28;4291;-62
2022/02/27 00:52:14;;;;;;;;;;;;;;;20.95;42.08;103171.75;5031043;28;4413;-62
2022/02/27 00:54:40;;;;;;;;;;;;;;;20.95;42.02;103171.75;5039321;28;4359;-62
2022/02/27 00:57:07;;;;;;;;;;;;;;;20.93;42.08;103170.22;5036067;28;4066;-62
2022/02/27 00:59:33;;;;;;;;;;;;;;;20.94;41.96;103173.88;5033806;28;4176;-62
2022/02/27 01:01:59;;;;;;;;;;;;;;;20.94;41.96;103165.22;5033800;28;4147;-62
2022/02/27 01:04:28;;;;;;;;;;;;;;;20.93;41.94;103170.22;5037082;28;5353;-63
2022/02/27 01:06:54;;;;;;;;;;;;;;;20.93;41.83;103169.47;5035406;28;4034;-63
2022/02/27 01:09:20;;;;;;;;;;;;;;;20.95;41.89;103166.00;5035404;28;5397;-62
2022/02/27 01:11:47;;;;;;;;;;;;;;;20.93;41.75;103163.69;5042263;28;5427;-62
2022/02/27 01:14:13;;;;;;;;;;;;;;;20.92;41.90;103165.81;5039477;28;4142;-62
2022/02/27 01:16:39;;;;;;;;;;;;;;;20.92;41.78;103165.06;5032988;28;5167;-62
2022/02/27 01:19:07;;;;;;;;;;;;;;;20.93;41.66;103175.97;5040815;28;4202;-63
2022/02/27 01:21:34;;;;;;;;;;;;;;;20.92;41.70;103167.94;5044160;28;4223;-63
2022/02/27 01:24:00;;;;;;;;;;;;;;;20.93;41.61;103175.97;5044434;28;4129;-62
2022/02/27 01:26:27;;;;;;;;;;;;;;;20.93;41.86;103164.44;5037891;28;4247;-62
2022/02/27 01:28:53;;;;;;;;;;;;;;;20.93;41.79;103169.47;5043311;28;4192;-62
2022/02/27 01:31:19;;;;;;;;;;;;;;;20.93;41.75;103166.56;5041200;28;4168;-63
2022/02/27 01:33:46;;;;;;;;;;;;;;;20.92;41.54;103165.06;5045019;28;5159;-62
2022/02/27 01:36:13;;;;;;;;;;;;;;;20.92;41.74;103168.69;5042941;28;4193;-62
2022/02/27 01:38:39;;;;;;;;;;;;;;;20.92;41.79;103165.81;5036283;28;5166;-62
2022/02/27 01:41:06;;;;;;;;;;;;;;;20.91;41.65;103161.44;5036838;28;5280;-62
2022/02/27 01:43:32;;;;;;;;;;;;;;;20.91;41.67;103164.31;5041187;28;4267;-63
2022/02/27 01:45:58;;;;;;;;;;;;;;;20.90;41.68;103159.91;5041600;28;5331;-62
2022/02/27 01:48:25;;;;;;;;;;;;;;;20.91;41.63;103164.31;5044631;28;4263;-63
2022/02/27 01:50:54;;;;;;;;;;;;;;;20.91;41.70;103167.19;5034611;28;4208;-62
2022/02/27 01:53:20;;;;;;;;;;;;;;;20.89;41.75;103164.16;5037165;28;4243;-62
2022/02/27 01:55:47;;;;;;;;;;;;;;;20.90;41.59;103164.91;5042112;28;5411;-62
2022/02/27 01:58:13;;;;;;;;;;;;;;;20.90;41.64;103162.78;5038367;28;4189;-62
2022/02/27 02:00:40;;;;;;;;;;;;;;;20.89;41.66;103164.16;5040683;28;4275;-62
2022/02/27 02:03:07;;;;;;;;;;;;;;;20.88;41.79;103167.63;5058104;28;5243;-62
2022/02/27 02:05:34;;;;;;;;;;;;;;;20.87;41.76;103166.84;5035628;28;4165;-62
2022/02/27 02:08:00;;;;;;;;;;;;;;;20.87;41.62;103166.84;5038770;28;5458;-63
2022/02/27 02:10:27;;;;;;;;;;;;;;;20.86;41.58;103165.31;5032773;28;5371;-62
2022/02/27 02:12:58;;;;;;;;;;;;;;;20.86;41.64;103165.31;5041358;28;4411;-62
2022/02/27 02:15:24;;;;;;;;;;;;;;;20.85;41.63;103163.81;5040224;28;4196;-63
2022/02/27 02:17:51;;;;;;;;;;;;;;;20.89;41.35;103169.91;5039829;28;4202;-62
2022/02/27 02:20:19;;;;;;;;;;;;;;;20.90;41.54;103165.66;5033648;28;4233;-62
2022/02/27 02:22:53;;;;;;;;;;;;;;;20.89;41.64;103167.03;5043643;28;4359;-62
2022/02/27 02:25:20;;;;;;;;;;;;;;;20.90;41.64;103171.41;5044650;28;4278;-62
2022/02/27 02:27:49;;;;;;;;;;;;;;;20.91;41.44;103167.19;5037718;28;4256;-62
2022/02/27 02:30:16;;;;;;;;;;;;;;;20.91;41.58;103167.19;5031566;28;4221;-62
2022/02/27 02:32:47;;;;;;;;;;;;;;;20.90;41.51;103168.53;5039542;28;5276;-62
2022/02/27 02:35:14;;;;;;;;;;;;;;;20.90;41.65;103174.28;5034471;28;5036;-63
2022/02/27 02:37:41;;;;;;;;;;;;;;;20.89;41.60;103175.66;5039406;28;5264;-62
2022/02/27 02:40:07;;;;;;;;;;;;;;;20.88;41.56;103174.13;5042401;28;4208;-62
2022/02/27 02:42:41;;;;;;;;;;;;;;;20.88;41.58;103179.88;5034412;28;5305;-62
2022/02/27 02:45:08;;;;;;;;;;;;;;;20.88;41.42;103179.88;5042487;28;4225;-62
2022/02/27 02:47:38;;;;;;;;;;;;;;;20.87;41.57;103183.38;5044707;28;4227;-62
2022/02/27 02:50:04;;;;;;;;;;;;;;;20.88;41.39;103185.66;5034412;28;5186;-62
2022/02/27 02:52:31;;;;;;;;;;;;;;;20.88;41.43;103179.88;5036721;28;4188;-62
2022/02/27 02:54:59;;;;;;;;;;;;;;;20.87;41.49;103172.63;5037062;28;4133;-62
2022/02/27 02:57:25;;;;;;;;;;;;;;;20.88;41.35;103176.25;5040677;28;5372;-62
2022/02/27 02:59:52;;;;;;;;;;;;;;;20.87;41.50;103181.25;5042050;28;4311;-62
2022/02/27 03:02:18;;;;;;;;;;;;;;;20.87;41.23;103178.38;5035930;28;4198;-62
2022/02/27 03:04:44;;;;;;;;;;;;;;;20.87;41.49;103189.16;5041095;28;4164;-62
2022/02/27 03:07:11;;;;;;;;;;;;;;;20.85;41.39;103186.84;5042744;28;4251;-62
2022/02/27 03:09:38;;;;;;;;;;;;;;;20.83;41.30;103189.56;5042512;28;4162;-62
2022/02/27 03:12:05;;;;;;;;;;;;;;;20.86;41.24;103182.59;5037739;28;5202;-62
2022/02/27 03:14:31;;;;;;;;;;;;;;;20.86;41.15;103179.72;5041939;28;4160;-62
2022/02/27 03:16:58;;;;;;;;;;;;;;;20.84;41.06;103185.31;5035275;28;4234;-62
2022/02/27 03:19:24;;;;;;;;;;;;;;;20.83;41.09;103183.81;5041775;28;4213;-63
2022/02/27 03:21:50;;;;;;;;;;;;;;;20.81;41.13;103183.63;5039122;28;4034;-62
2022/02/27 03:24:17;;;;;;;;;;;;;;;20.80;41.14;103182.13;5039870;28;5492;-62
2022/02/27 03:26:45;;;;;;;;;;;;;;;20.82;41.09;103193.03;5039837;28;4208;-62
2022/02/27 03:29:11;;;;;;;;;;;;;;;20.82;41.14;103193.81;5038903;28;4237;-62
2022/02/27 03:31:38;;;;;;;;;;;;;;;20.82;41.14;103185.16;5043270;28;4245;-62
2022/02/27 03:34:04;;;;;;;;;;;;;;;20.83;41.24;103189.56;5039290;28;4140;-62
2022/02/27 03:36:30;;;;;;;;;;;;;;;20.85;41.11;103180.34;5033794;28;5391;-62
2022/02/27 03:38:57;;;;;;;;;;;;;;;20.85;41.22;103186.84;5042219;28;4250;-62
2022/02/27 03:41:23;;;;;;;;;;;;;;;20.85;41.33;103186.84;5044096;28;5232;-64
2022/02/27 03:43:49;;;;;;;;;;;;;;;20.85;41.34;103186.84;5042435;28;4012;-62
2022/02/27 03:46:16;;;;;;;;;;;;;;;20.85;41.44;103189.72;5043169;28;5293;-62
2022/02/27 03:48:42;;;;;;;;;;;;;;;20.85;41.26;103177.47;5035462;28;5431;-62
2022/02/27 03:51:09;;;;;;;;;;;;;;;20.86;41.36;103179.72;5038485;28;4209;-62
2022/02/27 03:53:35;;;;;;;;;;;;;;;20.86;41.28;103191.25;5042655;28;4155;-62
2022/02/27 03:56:01;;;;;;;;;;;;;;;20.86;41.24;103197.00;5032566;28;5367;-62
2022/02/27 03:58:28;;;;;;;;;;;;;;;20.87;41.30;103195.66;5040094;28;4238;-62
2022/02/27 04:00:54;;;;;;;;;;;;;;;20.87;41.35;103197.78;5036765;28;5049;-62
2022/02/27 04:03:20;;;;;;;;;;;;;;;20.87;41.17;103201.41;5038986;28;4132;-62
2022/02/27 04:05:47;;;;;;;;;;;;;;;20.86;41.19;103191.25;5035859;28;4209;-62
2022/02/27 04:08:13;;;;;;;;;;;;;;;20.86;41.30;103196.25;5039389;28;4127;-62
2022/02/27 04:10:40;;;;;;;;;;;;;;;20.86;41.16;103199.88;5038459;28;5329;-62
2022/02/27 04:13:07;;;;;;;;;;;;;;;20.85;41.21;103201.25;5044714;28;4031;-62
2022/02/27 04:15:33;;;;;;;;;;;;;;;20.85;41.19;103204.13;5037094;28;5221;-62
2022/02/27 04:18:00;;;;;;;;;;;;;;;20.85;41.12;103197.63;5035433;28;4220;-62
2022/02/27 04:20:26;;;;;;;;;;;;;;;20.85;40.95;103198.38;5038603;28;4192;-61
2022/02/27 04:22:52;;;;;;;;;;;;;;;20.85;41.16;103212.78;5041122;28;4025;-62
2022/02/27 04:25:19;;;;;;;;;;;;;;;20.83;41.11;103206.84;5037834;28;5305;-62
2022/02/27 04:27:45;;;;;;;;;;;;;;;20.84;40.98;103211.22;5039458;28;4144;-62
2022/02/27 04:30:12;;;;;;;;;;;;;;;20.83;41.09;103209.72;5033988;28;4047;-62
2022/02/27 04:32:38;;;;;;;;;;;;;;;20.83;41.06;103212.59;5040635;28;5517;-62
2022/02/27 04:35:04;;;;;;;;;;;;;;;20.83;40.89;103208.97;5034897;28;5329;-62
2022/02/27 04:37:31;;;;;;;;;;;;;;;20.83;40.97;103212.59;5041566;28;4248;-62
2022/02/27 04:39:57;;;;;;;;;;;;;;;20.84;41.01;103214.13;5040029;28;5524;-62
2022/02/27 04:42:23;;;;;;;;;;;;;;;20.84;41.04;103211.22;5037476;28;5346;-63
2022/02/27 04:44:50;;;;;;;;;;;;;;;20.84;41.09;103205.47;5040151;28;4278;-62
2022/02/27 04:47:16;;;;;;;;;;;;;;;20.84;41.11;103208.34;5039043;28;4128;-62
2022/02/27 04:49:42;;;;;;;;;;;;;;;20.84;41.05;103205.47;5037200;28;4326;-62
2022/02/27 04:52:09;;;;;;;;;;;;;;;20.86;41.12;103202.75;5040349;28;4392;-62
2022/02/27 04:54:36;;;;;;;;;;;;;;;20.86;41.03;103211.41;5040283;28;4147;-62
2022/02/27 04:57:02;;;;;;;;;;;;;;;20.87;41.08;103221.59;5041799;28;4130;-62
2022/02/27 04:59:29;;;;;;;;;;;;;;;20.87;41.18;103223.69;5042705;28;5432;-62
2022/02/27 05:01:55;;;;;;;;;;;;;;;20.87;41.07;103218.69;5042206;28;5329;-62
2022/02/27 05:04:22;;;;;;;;;;;;;;;20.87;41.02;103217.94;5042152;28;5301;-62
2022/02/27 05:06:48;;;;;;;;;;;;;;;20.86;40.94;103222.91;5039609;28;4198;-62
2022/02/27 05:09:17;;;;;;;;;;;;;;;20.87;40.91;103221.59;5036253;28;4184;-61
2022/02/27 05:11:44;;;;;;;;;;;;;;;20.86;40.86;103213.53;5044288;28;4244;-62
2022/02/27 05:14:11;;;;;;;;;;;;;;;20.86;40.91;103225.81;5042755;28;4132;-62
2022/02/27 05:16:39;;;;;;;;;;;;;;;20.85;41.00;103218.53;5037768;28;5348;-61
2022/02/27 05:19:05;;;;;;;;;;;;;;;20.85;40.74;103227.16;5037273;28;5254;-62
2022/02/27 05:21:32;;;;;;;;;;;;;;;20.83;40.82;103227.00;5036404;28;5482;-62
2022/02/27 05:23:58;;;;;;;;;;;;;;;20.85;40.82;103230.06;5041668;28;4222;-62
2022/02/27 05:26:24;;;;;;;;;;;;;;;20.84;40.74;103231.38;5033853;28;5326;-61
2022/02/27 05:28:51;;;;;;;;;;;;;;;20.83;40.74;103235.63;5033314;28;4256;-62
2022/02/27 05:31:17;;;;;;;;;;;;;;;20.84;40.70;103231.38;5042866;28;5305;-62
2022/02/27 05:33:43;;;;;;;;;;;;;;;20.85;40.75;103235.06;5043430;28;4131;-61
2022/02/27 05:36:10;;;;;;;;;;;;;;;20.84;40.64;103236.41;5041800;28;5356;-62
2022/02/27 05:38:36;;;;;;;;;;;;;;;20.84;40.65;103234.28;5042044;28;4308;-62
2022/02/27 05:41:03;;;;;;;;;;;;;;;20.85;40.71;103238.69;5042805;28;4126;-61
2022/02/27 05:43:29;;;;;;;;;;;;;;;20.85;40.77;103243.69;5044601;28;5301;-61
2022/02/27 05:45:55;;;;;;;;;;;;;;;20.84;40.91;103247.91;5041756;28;4197;-62
2022/02/27 05:48:22;;;;;;;;;;;;;;;20.86;40.93;103245.97;5038282;28;4312;-62
2022/02/27 05:50:49;;;;;;;;;;;;;;;20.85;40.87;103244.44;5038147;28;4182;-62
2022/02/27 05:53:15;;;;;;;;;;;;;;;20.87;40.87;103243.88;5039941;28;5458;-62
2022/02/27 05:55:41;;;;;;;;;;;;;;;20.86;40.81;103250.97;5041056;28;4137;-62
2022/02/27 05:58:08;;;;;;;;;;;;;;;20.85;40.90;103249.47;5040280;28;4501;-62
2022/02/27 06:00:34;;;;;;;;;;;;;;;20.84;41.02;103247.91;5039194;28;4336;-62
2022/02/27 06:03:01;;;;;;;;;;;;;;;20.84;40.73;103248.69;5041514;28;4188;-62
2022/02/27 06:05:29;;;;;;;;;;;;;;;20.84;40.81;103251.56;5040275;28;4141;-62
2022/02/27 06:07:55;;;;;;;;;;;;;;;20.84;40.83;103248.69;5035787;28;4207;-61
2022/02/27 06:10:22;;;;;;;;;;;;;;;20.83;40.76;103250.03;5040217;28;4194;-62
2022/02/27 06:12:49;;;;;;;;;;;;;;;20.86;40.65;103245.22;5045707;28;5392;-61
2022/02/27 06:15:15;;;;;;;;;;;;;;;20.83;40.73;103243.53;5040654;28;4213;-61
2022/02/27 06:17:42;;;;;;;;;;;;;;;20.81;40.68;103252.75;5040474;28;4475;-62
2022/02/27 06:20:08;;;;;;;;;;;;;;;20.83;40.59;103250.03;5038211;28;4244;-62
2022/02/27 06:22:39;;;;;;;;;;;;;;;20.82;40.67;103248.53;5035798;28;4197;-62
2022/02/27 06:25:05;;;;;;;;;;;;;;;20.82;40.63;103257.16;5040099;28;5480;-62
2022/02/27 06:27:32;;;;;;;;;;;;;;;20.83;40.58;103252.91;5042035;28;4191;-62
2022/02/27 06:30:00;;;;;;;;;;;;;;;20.83;40.67;103252.16;5042980;28;5217;-61
2022/02/27 06:32:26;;;;;;;;;;;;;;;20.82;40.62;103248.53;5038392;28;4228;-62
2022/02/27 06:34:53;;;;;;;;;;;;;;;20.83;40.72;103260.81;5039872;28;4254;-62
2022/02/27 06:37:19;;;;;;;;;;;;;;;20.84;40.66;103259.44;5036951;28;5324;-61
2022/02/27 06:39:45;;;;;;;;;;;;;;;20.84;40.53;103259.44;5040714;28;4234;-61
2022/02/27 06:42:12;;;;;;;;;;;;;;;20.83;40.77;103261.56;5037760;28;4146;-61
2022/02/27 06:44:38;;;;;;;;;;;;;;;20.85;40.82;103272.50;5044127;28;5367;-62
2022/02/27 06:47:05;;;;;;;;;;;;;;;20.85;40.69;103267.50;5042494;28;5289;-62
2022/02/27 06:49:32;;;;;;;;;;;;;;;20.85;40.72;103267.50;5037260;28;4267;-62
2022/02/27 06:51:58;;;;;;;;;;;;;;;20.85;40.78;103278.25;5039676;28;5293;-62
2022/02/27 06:54:24;;;;;;;;;;;;;;;20.85;40.72;103279.00;5039473;28;4155;-62
2022/02/27 06:56:51;;;;;;;;;;;;;;;20.85;40.66;103284.78;5041482;28;4023;-62
2022/02/27 06:59:17;;;;;;;;;;;;;;;20.84;40.73;103271.72;5041886;28;4222;-61
2022/02/27 07:01:43;;;;;;;;;;;;;;;20.82;40.79;103280.22;5034569;28;5365;-62
2022/02/27 07:04:10;;;;;;;;;;;;;;;20.84;40.72;103277.47;5037168;28;5264;-62
2022/02/27 07:06:36;;;;;;;;;;;;;;;20.84;40.74;103282.47;5035920;28;5265;-61
2022/02/27 07:09:03;;;;;;;;;;;;;;;20.80;41.21;103285.81;5034337;28;4237;-61
2022/02/27 07:11:29;;;;;;;;;;;;;;;20.83;41.30;103287.47;5031162;28;4156;-62
2022/02/27 07:13:56;;;;;;;;;;;;;;;20.82;41.35;103288.06;5037105;28;4040;-62
2022/02/27 07:16:22;;;;;;;;;;;;;;;20.83;41.60;103296.13;5042164;28;5460;-62
2022/02/27 07:18:57;;;;;;;;;;;;;;;20.81;41.77;103295.94;5040218;28;4303;-61
2022/02/27 07:21:23;;;;;;;;;;;;;;;20.81;41.80;103295.94;5038581;28;4186;-63
2022/02/27 07:23:50;;;;;;;;;;;;;;;20.82;41.67;103300.38;5039953;28;4197;-61
2022/02/27 07:26:16;;;;;;;;;;;;;;;20.80;41.71;103300.19;5039266;28;4023;-62
2022/02/27 07:28:43;;;;;;;;;;;;;;;20.83;41.85;103301.13;5037538;28;5224;-62
2022/02/27 07:31:09;;;;;;;;;;;;;;;20.83;41.99;103307.66;5042674;28;4203;-62
2022/02/27 07:33:36;;;;;;;;;;;;;;;20.80;41.74;103305.97;5034941;28;4262;-59
2022/02/27 07:36:02;;;;;;;;;;;;;;;20.83;42.47;103309.78;5042482;28;4413;-59
2022/02/27 07:38:29;;;;;;;;;;;;;;;20.85;42.70;103307.06;5040271;28;4192;-60
2022/02/27 07:40:55;;;;;;;;;;;;;;;20.87;42.21;103316.63;5038493;28;4340;-61
2022/02/27 07:43:21;;;;;;;;;;;;;;;20.89;42.47;103316.81;5036247;28;5391;-62
2022/02/27 07:45:49;;;;;;;;;;;;;;;20.89;42.63;103313.91;5038480;28;4131;-62
2022/02/27 07:48:15;;;;;;;;;;;;;;;20.88;42.41;103306.63;5045300;28;4325;-62
2022/02/27 07:50:41;;;;;;;;;;;;;;;20.89;42.43;103305.28;5039120;28;5442;-63
2022/02/27 07:53:08;;;;;;;;;;;;;;;20.90;42.62;103315.44;5038277;28;4201;-62
2022/02/27 07:55:34;;;;;;;;;;;;;;;20.87;42.50;103310.88;5039333;28;4183;-62
2022/02/27 07:58:01;;;;;;;;;;;;;;;20.97;42.32;103307.31;5042310;28;4296;-59
2022/02/27 08:00:27;;;;;;;;;;;;;;;20.98;42.68;103311.69;5033130;28;4539;-63
2022/02/27 08:02:53;;;;;;;;;;;;;;;20.99;42.53;103316.13;5040447;28;4209;-61
2022/02/27 08:05:20;;;;;;;;;;;;;;;20.72;40.74;103311.03;5037541;28;4071;-59
2022/02/27 08:07:47;;;;;;;;;;;;;;;20.71;40.80;103304.50;5038097;28;4351;-59
2022/02/27 08:10:13;;;;;;;;;;;;;;;20.75;40.42;103306.94;5034583;28;4047;-60
2022/02/27 08:12:41;;;;;;;;;;;;;;;20.78;40.47;103308.66;5041733;28;4188;-59
2022/02/27 08:15:10;;;;;;;;;;;;;;;20.81;40.98;103306.72;5044225;28;4203;-59
2022/02/27 08:17:38;;;;;;;;;;;;;;;20.81;41.43;103307.47;5040582;28;4278;-59
2022/02/27 08:20:05;;;;;;;;;;;;;;;20.82;41.54;103309.00;5042970;28;4252;-59
2022/02/27 08:22:32;;;;;;;;;;;;;;;20.83;41.76;103299.00;5041683;28;5393;-60
2022/02/27 08:24:58;;;;;;;;;;;;;;;20.84;41.93;103306.28;5044792;28;4120;-59
2022/02/27 08:27:25;;;;;;;;;;;;;;;20.84;42.02;103308.41;5043828;28;5226;-60
2022/02/27 08:29:52;;;;;;;;;;;;;;;20.84;42.02;103306.28;5042298;28;4215;-60
2022/02/27 08:32:18;;;;;;;;;;;;;;;20.83;42.26;103307.66;5041402;28;4350;-60
2022/02/27 08:34:45;;;;;;;;;;;;;;;20.84;42.38;103314.91;5040148;28;4257;-60
2022/02/27 08:37:11;;;;;;;;;;;;;;;20.84;42.32;103305.53;5041647;28;4204;-59
2022/02/27 08:39:38;;;;;;;;;;;;;;;20.83;42.43;103310.53;5041047;28;4149;-59
2022/02/27 08:42:04;;;;;;;;;;;;;;;20.86;42.42;103308.56;5039650;28;5217;-60
2022/02/27 08:44:33;;;;;;;;;;;;;;;20.84;42.40;103317.78;5042704;28;4216;-60
2022/02/27 08:47:00;;;;;;;;;;;;;;;20.84;42.33;103314.91;5044275;28;4218;-60
2022/02/27 08:49:26;;;;;;;;;;;;;;;20.85;42.48;103318.59;5042595;28;4195;-60
2022/02/27 08:51:53;;;;;;;;;;;;;;;20.84;42.54;103320.69;5043123;28;4242;-60
2022/02/27 08:54:19;;;;;;;;;;;;;;;20.85;42.65;103312.81;5041391;28;5310;-60
2022/02/27 08:56:46;;;;;;;;;;;;;;;20.84;42.62;103312.03;5045153;28;5379;-60
2022/02/27 08:59:12;;;;;;;;;;;;;;;20.84;42.82;103312.03;5040511;28;4155;-59
2022/02/27 09:01:38;;;;;;;;;;;;;;;20.84;42.76;103312.03;5043004;28;4277;-60
2022/02/27 09:04:05;;;;;;;;;;;;;;;20.85;42.77;103313.56;5041525;28;5233;-59
2022/02/27 09:06:31;;;;;;;;;;;;;;;20.85;42.67;103316.47;5044518;28;5339;-60
2022/02/27 09:08:58;;;;;;;;;;;;;;;20.84;42.86;103314.16;5031068;28;4221;-66
2022/02/27 09:11:24;;;;;;;;;;;;;;;19.80;38.90;103320.44;5035001;28;5230;-58
2022/02/27 09:13:50;;;;;;;;;;;;;;;20.08;39.10;103307.75;5040459;28;4256;-59
2022/02/27 09:16:17;;;;;;;;;;;;;;;20.23;39.55;103307.63;5039169;28;4187;-60
2022/02/27 09:18:43;;;;;;;;;;;;;;;20.35;38.88;103313.66;5037826;28;5252;-59
2022/02/27 09:21:10;;;;;;;;;;;;;;;20.50;39.77;103313.53;5042212;28;4264;-58
2022/02/27 09:23:36;;;;;;;;;;;;;;;20.52;40.54;103315.81;5040833;28;5263;-59
2022/02/27 09:26:03;;;;;;;;;;;;;;;20.61;40.68;103311.53;5037015;28;5238;-59
2022/02/27 09:28:49;;;;;;;;;;;;;;;20.70;41.32;103311.63;5038755;28;5134;-64
2022/02/27 09:31:15;;;;;;;;;;;;;;;20.81;41.41;103312.47;5036228;28;4092;-58
2022/02/27 09:33:42;;;;;;;;;;;;;;;20.82;41.29;103303.25;5036506;28;4250;-58
2022/02/27 09:36:10;;;;;;;;;;;;;;;20.84;42.20;103306.28;5037213;28;4199;-59
2022/02/27 09:38:37;;;;;;;;;;;;;;;20.87;42.49;103310.13;5033360;28;5358;-58
2022/02/27 09:41:04;;;;;;;;;;;;;;;20.87;43.04;103310.88;5037657;28;4148;-59
2022/02/27 09:43:30;;;;;;;;;;;;;;;20.87;42.99;103305.09;5043583;28;5392;-58
2022/02/27 09:45:56;;;;;;;;;;;;;;;20.89;42.89;103308.16;5044445;28;5458;-58
2022/02/27 09:48:23;;;;;;;;;;;;;;;20.91;43.16;103310.44;5044181;28;5332;-59
2022/02/27 09:50:49;;;;;;;;;;;;;;;20.90;42.66;103309.66;5053267;28;5405;-58
2022/02/27 09:53:15;;;;;;;;;;;;;;;20.91;43.26;103302.56;5039595;28;4217;-58
2022/02/27 09:55:42;;;;;;;;;;;;;;;20.91;42.53;103311.22;5043458;28;4185;-59
2022/02/27 09:58:08;;;;;;;;;;;;;;;20.92;43.31;103315.59;5037934;28;4359;-59
2022/02/27 10:00:34;;;;;;;;;;;;;;;20.92;42.74;103315.59;5043017;28;5250;-59
2022/02/27 10:03:07;;;;;;;;;;;;;;;20.92;42.77;103318.47;5041566;28;4533;-59
2022/02/27 10:05:38;;;;;;;;;;;;;;;20.92;43.18;103315.59;5038465;28;4225;-59
2022/02/27 10:08:05;;;;;;;;;;;;;;;20.92;43.11;103306.97;5039004;28;5449;-59
2022/02/27 10:10:31;;;;;;;;;;;;;;;20.92;42.88;103306.97;5039418;28;5396;-59
2022/02/27 10:12:59;;;;;;;;;;;;;;;20.96;43.33;103314.41;5039955;28;4123;-62
2022/02/27 10:15:26;;;;;;;;;;;;;;;20.97;43.26;103313.06;5040563;28;4203;-61
2022/02/27 10:17:56;;;;;;;;;;;;;;;20.96;43.21;103308.66;5044286;28;4169;-61
2022/02/27 10:20:24;;;;;;;;;;;;;;;20.93;43.22;103305.59;5038579;28;4025;-60
2022/02/27 10:22:51;;;;;;;;;;;;;;;20.10;38.14;103310.81;5041905;28;5315;-59
2022/02/27 10:25:18;;;;;;;;;;;;;;;19.87;38.09;103308.88;5042148;28;5383;-61
2022/02/27 10:27:45;;;;;;;;;;;;;;;20.17;37.85;103309.22;5037307;28;5325;-61
2022/02/27 10:30:12;;;;;;;;;;;;;;;20.43;39.63;103297.09;5042297;28;4229;-65
2022/02/27 10:32:38;;;;;;;;;;;;;;;20.63;40.17;103300.19;5043336;28;5452;-61
2022/02/27 10:35:05;;;;;;;;;;;;;;;20.29;38.58;103307.38;5035043;28;4027;-64
2022/02/27 10:37:31;;;;;;;;;;;;;;;20.23;37.96;103301.13;5034813;28;4299;-64
2022/02/27 10:40:00;;;;;;;;;;;;;;;20.41;38.63;103299.03;5044308;28;4268;-65
2022/02/27 10:42:30;;;;;;;;;;;;;;;20.53;39.59;103305.06;5042200;28;5287;-64
2022/02/27 10:45:00;;;;;;;;;;;;;;;20.61;40.08;103300.00;5043738;28;4256;-65
2022/02/27 10:47:27;;;;;;;;;;;;;;;20.68;40.17;103299.94;5043923;28;5402;-64
2022/02/27 10:49:54;;;;;;;;;;;;;;;20.68;39.97;103288.44;5042332;28;4131;-65
2022/02/27 10:52:22;;;;;;;;;;;;;;;20.76;40.30;103294.09;5043923;28;4199;-64
2022/02/27 10:54:50;;;;;;;;;;;;;;;20.76;40.44;103299.84;5041595;28;4061;-65
2022/02/27 10:57:28;;;;;;;;;;;;;;;20.78;40.42;103299.28;5043495;28;4216;-65
2022/02/27 10:59:55;;;;;;;;;;;;;;;20.78;40.61;103294.28;5045693;28;5222;-65
2022/02/27 11:02:27;;;;;;;;;;;;;;;20.79;40.71;103295.78;5043595;28;4231;-64
2022/02/27 11:04:53;;;;;;;;;;;;;;;20.81;40.82;103293.06;5044806;28;5113;-64
2022/02/27 11:07:20;;;;;;;;;;;;;;;20.83;40.69;103283.84;5041858;28;5206;-65
2022/02/27 11:09:47;;;;;;;;;;;;;;;20.84;40.96;103277.47;5044262;28;5308;-64
2022/02/27 11:12:16;;;;;;;;;;;;;;;20.84;41.23;103283.22;5041472;28;5434;-64
2022/02/27 11:14:42;;;;;;;;;;;;;;;20.84;41.35;103283.22;5042601;28;4170;-65
2022/02/27 11:17:11;;;;;;;;;;;;;;;20.86;41.67;103280.53;5044573;28;4276;-65
2022/02/27 11:19:38;;;;;;;;;;;;;;;20.86;41.40;103274.00;5043874;28;4175;-65
2022/02/27 11:22:05;;;;;;;;;;;;;;;20.85;41.67;103261.72;5044579;28;4063;-66
2022/02/27 11:24:35;;;;;;;;;;;;;;;20.87;41.96;103269.78;5041979;28;4114;-65
2022/02/27 11:27:03;;;;;;;;;;;;;;;20.88;42.00;103266.28;5043141;28;4204;-65
2022/02/27 11:29:29;;;;;;;;;;;;;;;20.89;41.80;103267.84;5037800;28;5432;-65
2022/02/27 11:31:56;;;;;;;;;;;;;;;20.90;42.07;103268.59;5043771;28;5261;-65
2022/02/27 11:34:24;;;;;;;;;;;;;;;20.90;42.09;103262.81;5041599;28;4214;-65
2022/02/27 11:36:52;;;;;;;;;;;;;;;20.91;42.02;103270.09;5037743;28;4214;-66
2022/02/27 11:42:04;;;;;;;;;;;;;;;20.91;42.24;103249.94;5040635;28;4154;-66
2022/02/27 11:44:34;;;;;;;;;;;;;;;20.86;42.18;103257.47;5043295;28;4193;-57
2022/02/27 11:47:02;;;;;;;;;;;;;;;20.85;42.23;103261.72;5044136;28;5351;-57
2022/02/27 11:49:28;;;;;;;;;;;;;;;20.86;42.32;103257.47;5041997;28;4202;-57
2022/02/27 11:52:10;;;;;;;;;;;;;;;20.86;42.24;103254.59;5030317;28;4182;-57
2022/02/27 11:54:50;;;;;;;;;;;;;;;20.89;42.24;103250.56;5041374;28;4278;-57
2022/02/27 11:57:18;;;;;;;;;;;;;;;20.91;42.36;103250.72;5040315;28;4371;-57
2022/02/27 11:59:46;;;;;;;;;;;;;;;20.92;42.24;103255.13;5043285;28;4263;-56
2022/02/27 12:02:21;;;;;;;;;;;;;;;20.93;42.33;103256.63;5044909;28;4251;-57
2022/02/27 12:04:49;;;;;;;;;;;;;;;20.95;42.24;103258.91;5039138;28;5436;-56
2022/02/27 12:07:15;;;;;;;;;;;;;;;20.94;42.37;103248.75;5043298;28;4099;-57
2022/02/27 12:09:47;;;;;;;;;;;;;;;20.93;42.30;103253.75;5040296;28;5213;-58
2022/02/27 12:12:34;;;;;;;;;;;;;;;20.93;42.41;103245.09;5040030;28;4366;-57
2022/02/27 12:15:16;;;;;;;;;;;;;;;20.96;42.34;103251.03;5041715;28;4143;-58
2022/02/27 12:17:48;;;;;;;;;;;;;;;20.96;42.28;103248.16;5045997;28;5301;-58
2022/02/27 12:20:30;;;;;;;;;;;;;;;20.96;42.42;103251.03;5042069;28;5389;-58
2022/02/27 12:22:56;;;;;;;;;;;;;;;20.91;42.39;103242.06;5038650;28;4143;-58
2022/02/27 12:25:32;;;;;;;;;;;;;;;20.95;42.76;103243.75;5042470;28;4268;-58
2022/02/27 12:27:58;;;;;;;;;;;;;;;20.99;42.70;103249.84;5042738;28;4233;-58
2022/02/27 12:30:25;;;;;;;;;;;;;;;21.04;42.65;103243.06;5040582;28;5544;-57
2022/02/27 12:32:51;;;;;;;;;;;;;;;21.07;42.48;103245.53;5037733;28;4144;-57
2022/02/27 12:35:17;;;;;;;;;;;;;;;21.10;42.50;103237.81;5031384;28;4349;-58
2022/02/27 12:37:44;;;;;;;;;;;;;;;21.11;42.68;103239.31;5032416;28;4142;-58
2022/02/27 12:40:11;;;;;;;;;;;;;;;21.11;42.65;103237.19;5039176;28;4345;-58
2022/02/27 12:42:37;;;;;;;;;;;;;;;21.12;42.90;103237.97;5036900;28;4224;-57
2022/02/27 12:45:04;;;;;;;;;;;;;;;21.09;42.85;103245.66;5035811;28;4228;-57
2022/02/27 12:47:34;;;;;;;;;;;;;;;21.05;42.96;103245.34;5042535;28;4088;-57
2022/02/27 12:50:21;;;;;;;;;;;;;;;21.03;43.03;103242.31;5042358;28;4136;-57